Weather at Evje Airfield

Public forecast

Using degrees Celsius for public forecast. Weather courtesy of forecast.io.

Closest aviation weather report (METAR) to Evje Airfield

Closest report is Kristiansand Airport, Kjevik, 25.5 nm (47.3 km) SSE. Retrieved 2021/10/22 02:20 UTC (0 seconds ago):

ENCN 220220Z AUTO 29004KT 240V330 9999 NCD 04/M00 Q0992

Closest aviation forecast (TAF) to Evje Airfield

Forecast is more than 12 hours old.

Closest forecast is Kristiansand Airport, Kjevik, 25.5 nm (47.3 km) SSE. Retrieved 2016/05/06 12:39 UTC (5 years ago):

TAF TAF ENCN 061100Z 0612/0712 14008KT 9999 FEW040